Time;durP1;ratioP1;P1;durP2;ratioP2;P2;SDS_P1;SDS_P2;PMS_P1;PMS_P2;Temp;Humidity;BMP_temperature;BMP_pressure;BME280_temperature;BME280_humidity;BME280_pressure;Samples;Min_cycle;Max_cycle;Signal;HPM_P1;HPM_P2
2021/10/24 00:01:08;;;;;;;3.65;1.60;;;12.40;99.90;;;;;;5049513;28;20029;-62
2021/10/24 00:03:34;;;;;;;5.68;1.83;;;12.40;99.90;;;;;;5051484;28;20021;-63
2021/10/24 00:06:00;;;;;;;7.68;1.88;;;12.40;99.90;;;;;;5052977;28;20025;-62
2021/10/24 00:08:27;;;;;;;3.97;1.70;;;12.40;99.90;;;;;;5033602;28;20097;-62
2021/10/24 00:10:53;;;;;;;4.43;1.60;;;12.40;99.90;;;;;;5052492;28;20033;-62
2021/10/24 00:13:19;;;;;;;3.20;1.50;;;12.40;99.90;;;;;;5052025;28;20075;-62
2021/10/24 00:15:48;;;;;;;8.25;2.33;;;12.40;99.90;;;;;;5052266;28;20029;-62
2021/10/24 00:18:14;;;;;;;8.82;1.90;;;12.40;99.90;;;;;;5053057;28;20040;-62
2021/10/24 00:20:40;;;;;;;7.05;2.10;;;12.40;99.90;;;;;;5048529;28;20033;-63
2021/10/24 00:23:06;;;;;;;5.28;1.73;;;12.40;99.90;;;;;;5053465;28;20542;-63
2021/10/24 00:25:32;;;;;;;4.10;1.80;;;12.30;99.90;;;;;;5041199;28;20471;-62
2021/10/24 00:27:58;;;;;;;5.15;1.80;;;12.30;99.90;;;;;;5053505;28;20151;-63
2021/10/24 00:30:24;;;;;;;4.90;1.80;;;12.30;99.90;;;;;;5051911;28;20107;-63
2021/10/24 00:32:49;;;;;;;3.85;1.75;;;12.30;99.90;;;;;;5043939;28;20518;-61
2021/10/24 00:35:15;;;;;;;6.00;1.80;;;12.30;99.90;;;;;;5052461;28;20040;-62
2021/10/24 00:37:41;;;;;;;4.40;1.80;;;12.30;99.90;;;;;;5053086;28;20040;-63
2021/10/24 00:40:08;;;;;;;5.72;2.10;;;12.30;99.90;;;;;;5052067;28;20032;-61
2021/10/24 00:42:33;;;;;;;4.13;1.83;;;12.30;99.90;;;;;;5052611;28;20044;-62
2021/10/24 00:44:59;;;;;;;6.63;1.90;;;12.30;99.90;;;;;;5052811;28;20025;-62
2021/10/24 00:47:26;;;;;;;5.55;2.05;;;12.30;99.90;;;;;;5052359;28;20113;-61
2021/10/24 00:49:53;;;;;;;6.40;1.80;;;12.30;99.90;;;;;;5052885;28;20132;-64
2021/10/24 00:52:19;;;;;;;4.43;1.80;;;12.30;99.90;;;;;;5051226;28;20013;-64
2021/10/24 00:54:46;;;;;;;5.80;2.00;;;12.30;99.90;;;;;;5051896;28;20087;-63
2021/10/24 00:57:12;;;;;;;4.30;1.60;;;12.40;99.90;;;;;;5051909;28;20041;-62
2021/10/24 00:59:38;;;;;;;5.78;1.67;;;12.40;99.90;;;;;;5052445;28;20057;-62
2021/10/24 01:02:04;;;;;;;5.90;2.15;;;12.40;99.90;;;;;;5051208;28;20029;-62
2021/10/24 01:04:31;;;;;;;4.63;1.80;;;12.40;99.90;;;;;;5051982;28;20025;-64
2021/10/24 01:07:02;;;;;;;5.45;1.85;;;12.30;99.90;;;;;;5051329;28;20037;-62
2021/10/24 01:09:30;;;;;;;4.00;1.63;;;12.40;99.90;;;;;;5052314;28;20112;-62
2021/10/24 01:11:56;;;;;;;3.83;1.70;;;12.30;99.90;;;;;;5050926;28;20044;-62
2021/10/24 01:14:22;;;;;;;6.57;1.80;;;12.40;99.90;;;;;;5050579;28;20482;-62
2021/10/24 01:16:52;;;;;;;2.70;1.30;;;12.40;99.90;;;;;;5051480;28;20021;-64
2021/10/24 01:19:19;;;;;;;3.75;1.60;;;12.40;99.90;;;;;;5044176;28;20044;-62
2021/10/24 01:21:45;;;;;;;8.18;1.48;;;12.40;99.90;;;;;;5049692;28;20040;-63
2021/10/24 01:24:11;;;;;;;8.63;2.03;;;12.40;99.90;;;;;;5051330;28;20426;-64
2021/10/24 01:26:38;;;;;;;4.13;1.67;;;12.40;99.90;;;;;;5051486;28;20029;-63
2021/10/24 01:29:06;;;;;;;5.20;1.77;;;12.40;99.90;;;;;;5051946;28;20078;-62
2021/10/24 01:31:32;;;;;;;5.82;1.75;;;12.40;99.90;;;;;;5050681;28;20045;-61
2021/10/24 01:33:58;;;;;;;5.10;1.63;;;12.40;99.90;;;;;;5051502;28;20116;-62
2021/10/24 01:36:23;;;;;;;7.65;1.55;;;12.40;99.90;;;;;;5051048;28;20104;-64
2021/10/24 01:38:50;;;;;;;4.70;1.70;;;12.40;99.90;;;;;;5050993;28;20102;-61
2021/10/24 01:41:17;;;;;;;3.83;1.70;;;12.40;99.90;;;;;;5032577;28;20391;-61
2021/10/24 01:43:44;;;;;;;6.80;1.45;;;12.40;99.90;;;;;;5051226;28;20115;-62
2021/10/24 01:46:10;;;;;;;4.32;1.90;;;12.40;99.90;;;;;;5050396;28;20375;-62
2021/10/24 01:48:36;;;;;;;3.70;1.90;;;12.50;99.90;;;;;;5033443;28;20029;-62
2021/10/24 01:51:03;;;;;;;6.03;2.10;;;12.40;99.90;;;;;;5050519;28;20532;-61
2021/10/24 01:53:41;;;;;;;7.00;1.90;;;12.50;99.90;;;;;;5051774;28;20031;-60
2021/10/24 01:56:08;;;;;;;3.22;1.52;;;12.40;99.90;;;;;;5049521;28;20028;-59
2021/10/24 01:58:34;;;;;;;6.20;1.70;;;12.40;99.90;;;;;;5048954;28;20044;-63
2021/10/24 02:01:00;;;;;;;8.52;1.92;;;12.40;99.90;;;;;;5049812;28;20041;-63
2021/10/24 02:03:26;;;;;;;7.35;2.03;;;12.30;99.90;;;;;;5051472;28;20029;-64
2021/10/24 02:05:52;;;;;;;5.70;1.73;;;12.30;99.90;;;;;;5050263;28;20059;-63
2021/10/24 02:08:18;;;;;;;2.85;1.55;;;12.30;99.90;;;;;;5051280;28;20017;-61
2021/10/24 02:10:46;;;;;;;7.78;1.80;;;12.30;99.90;;;;;;5050489;28;20055;-63
2021/10/24 02:13:12;;;;;;;5.82;1.92;;;12.30;99.90;;;;;;5050070;28;20025;-64
2021/10/24 02:15:39;;;;;;;3.00;1.63;;;12.30;99.90;;;;;;5050523;28;20037;-63
2021/10/24 02:18:06;;;;;;;4.68;1.88;;;12.30;99.90;;;;;;5050100;28;20140;-63
2021/10/24 02:20:35;;;;;;;8.07;2.03;;;12.30;99.90;;;;;;5051103;28;20115;-64
2021/10/24 02:23:04;;;;;;;5.80;1.83;;;12.30;99.90;;;;;;5050329;28;20067;-62
2021/10/24 02:25:30;;;;;;;5.60;1.70;;;12.30;99.90;;;;;;5049970;28;20025;-62
2021/10/24 02:27:56;;;;;;;5.38;1.63;;;12.30;99.90;;;;;;5049010;28;20040;-62
2021/10/24 02:30:21;;;;;;;6.80;2.05;;;12.20;99.90;;;;;;5050037;28;20028;-64
2021/10/24 02:32:47;;;;;;;3.15;1.73;;;12.20;99.90;;;;;;5050000;28;20120;-65
2021/10/24 02:35:13;;;;;;;6.00;1.90;;;12.20;99.90;;;;;;5050135;28;20040;-63
2021/10/24 02:37:41;;;;;;;6.32;2.50;;;12.30;99.90;;;;;;5050390;28;20036;-62
2021/10/24 02:40:07;;;;;;;4.43;1.70;;;12.30;99.90;;;;;;5049874;28;20033;-64
2021/10/24 02:42:33;;;;;;;3.97;1.80;;;12.30;99.90;;;;;;5049303;28;20028;-62
2021/10/24 02:44:59;;;;;;;7.70;2.00;;;12.20;99.90;;;;;;5049410;28;20426;-63
2021/10/24 02:47:25;;;;;;;7.85;1.90;;;12.20;99.90;;;;;;5049290;28;20029;-63
2021/10/24 02:49:51;;;;;;;6.60;2.17;;;12.20;99.90;;;;;;5050409;28;20065;-62
2021/10/24 02:52:17;;;;;;;5.28;1.60;;;12.20;99.90;;;;;;5049271;28;20036;-63
2021/10/24 02:54:43;;;;;;;6.32;1.73;;;12.20;99.90;;;;;;5049913;28;20036;-64
2021/10/24 02:57:09;;;;;;;6.82;1.77;;;12.20;99.90;;;;;;5046972;28;20041;-62
2021/10/24 02:59:35;;;;;;;6.50;1.88;;;12.20;99.90;;;;;;5050392;28;20036;-63
2021/10/24 03:02:01;;;;;;;7.40;2.17;;;12.20;99.90;;;;;;5047630;28;20025;-62
2021/10/24 03:04:27;;;;;;;5.35;2.03;;;12.20;99.90;;;;;;5049717;28;20028;-63
2021/10/24 03:06:53;;;;;;;5.78;1.75;;;12.20;99.90;;;;;;5049184;28;20037;-64
2021/10/24 03:09:20;;;;;;;6.07;1.80;;;12.30;99.90;;;;;;5049463;28;20032;-63
2021/10/24 03:11:46;;;;;;;4.85;1.77;;;12.30;99.90;;;;;;5049113;28;20143;-63
2021/10/24 03:14:13;;;;;;;5.78;1.60;;;12.30;99.90;;;;;;5049766;28;20032;-62
2021/10/24 03:16:39;;;;;;;4.38;1.88;;;12.20;99.90;;;;;;5048007;28;20075;-63
2021/10/24 03:19:05;;;;;;;9.18;1.70;;;12.20;99.90;;;;;;5049811;28;20041;-62
2021/10/24 03:21:31;;;;;;;5.20;2.00;;;12.20;99.90;;;;;;5045618;28;20036;-62
2021/10/24 03:23:57;;;;;;;5.65;1.60;;;12.20;99.90;;;;;;5050177;28;20057;-63
2021/10/24 03:26:24;;;;;;;7.38;1.60;;;12.20;99.90;;;;;;5049266;28;20037;-64
2021/10/24 03:28:49;;;;;;;8.77;2.20;;;12.20;99.90;;;;;;5050216;28;20364;-63
2021/10/24 03:31:15;;;;;;;7.82;1.92;;;12.20;99.90;;;;;;5049149;28;20064;-62
2021/10/24 03:33:41;;;;;;;3.40;1.60;;;12.20;99.90;;;;;;5050083;28;20028;-64
2021/10/24 03:36:07;;;;;;;6.65;2.38;;;12.30;99.90;;;;;;5040491;28;20041;-63
2021/10/24 03:38:33;;;;;;;5.90;1.75;;;12.20;99.90;;;;;;5052366;28;20052;-62
2021/10/24 03:40:59;;;;;;;8.82;2.13;;;12.10;99.90;;;;;;5053325;28;20394;-62
2021/10/24 03:43:26;;;;;;;5.45;1.55;;;12.20;99.90;;;;;;5052780;28;20056;-62
2021/10/24 03:45:51;;;;;;;5.72;1.60;;;12.20;99.90;;;;;;5050302;28;20546;-62
2021/10/24 03:48:17;;;;;;;4.63;1.70;;;12.20;99.90;;;;;;5053048;28;20117;-64
2021/10/24 03:50:43;;;;;;;5.85;1.60;;;12.20;99.90;;;;;;5053598;28;20025;-62
2021/10/24 03:53:08;;;;;;;7.93;1.83;;;12.20;99.90;;;;;;5052785;28;20039;-62
2021/10/24 03:55:34;;;;;;;5.13;1.63;;;12.20;99.90;;;;;;5052767;28;20037;-62
2021/10/24 03:58:00;;;;;;;6.65;1.65;;;12.20;99.90;;;;;;5052747;28;20072;-64
2021/10/24 04:00:26;;;;;;;4.38;1.45;;;12.20;99.90;;;;;;5052534;28;20026;-64
2021/10/24 04:02:57;;;;;;;5.90;1.77;;;12.20;99.90;;;;;;5052547;28;20068;-64
2021/10/24 04:05:25;;;;;;;6.93;2.17;;;12.30;99.90;;;;;;5034663;28;20025;-64
2021/10/24 04:07:51;;;;;;;6.75;1.85;;;12.20;99.90;;;;;;5052762;28;20479;-62
2021/10/24 04:10:19;;;;;;;6.25;1.80;;;12.20;99.90;;;;;;5053752;28;20025;-63
2021/10/24 04:12:45;;;;;;;5.47;1.88;;;12.20;99.90;;;;;;5052816;28;20485;-62
2021/10/24 04:15:12;;;;;;;5.80;1.80;;;12.20;99.90;;;;;;5051926;28;20028;-64
2021/10/24 04:17:38;;;;;;;7.68;2.17;;;12.20;99.90;;;;;;5052356;28;20033;-63
2021/10/24 04:20:10;;;;;;;6.03;1.80;;;12.20;99.90;;;;;;5053252;28;20032;-64
2021/10/24 04:22:37;;;;;;;6.40;2.13;;;12.20;99.90;;;;;;5051900;28;20024;-62
2021/10/24 04:25:04;;;;;;;5.47;1.60;;;12.20;99.90;;;;;;5035307;28;20086;-63
2021/10/24 04:27:31;;;;;;;4.38;1.70;;;12.20;99.90;;;;;;5052661;28;20036;-63
2021/10/24 04:29:58;;;;;;;6.60;1.80;;;12.20;99.90;;;;;;5052881;28;20040;-64
2021/10/24 04:32:23;;;;;;;4.50;1.77;;;12.10;99.90;;;;;;5052376;28;20049;-63
2021/10/24 04:34:49;;;;;;;5.97;1.95;;;12.10;99.90;;;;;;5052469;28;20029;-61
2021/10/24 04:37:15;;;;;;;5.03;1.80;;;12.20;99.90;;;;;;5052084;28;20115;-64
2021/10/24 04:39:41;;;;;;;5.00;1.50;;;12.10;99.90;;;;;;5053142;28;20390;-63
2021/10/24 04:42:06;;;;;;;6.85;1.52;;;12.10;99.90;;;;;;5051505;28;20115;-63
2021/10/24 04:44:32;;;;;;;7.10;1.75;;;12.20;99.90;;;;;;5051852;28;20028;-64
2021/10/24 04:46:58;;;;;;;5.53;1.65;;;12.10;99.90;;;;;;5051291;28;20025;-62
2021/10/24 04:49:24;;;;;;;5.13;1.58;;;12.20;99.90;;;;;;5051876;28;20525;-64
2021/10/24 04:51:50;;;;;;;5.80;1.38;;;12.20;99.90;;;;;;5051237;28;20032;-63
2021/10/24 04:54:16;;;;;;;4.88;1.48;;;12.20;99.90;;;;;;5052147;28;20028;-62
2021/10/24 04:56:42;;;;;;;11.60;2.55;;;12.20;99.90;;;;;;5052319;28;20045;-63
2021/10/24 04:59:07;;;;;;;5.47;1.60;;;12.20;99.90;;;;;;5051417;28;20045;-63
2021/10/24 05:01:33;;;;;;;6.57;1.77;;;12.20;99.90;;;;;;5051210;28;20095;-64
2021/10/24 05:03:59;;;;;;;7.07;1.70;;;12.20;99.90;;;;;;5049459;28;20060;-64
2021/10/24 05:06:24;;;;;;;8.75;1.90;;;12.20;99.90;;;;;;5052032;28;20083;-63
2021/10/24 05:08:50;;;;;;;5.80;1.55;;;12.10;99.90;;;;;;5051665;28;20029;-64
2021/10/24 05:11:16;;;;;;;4.80;1.65;;;12.10;99.90;;;;;;5051976;28;20044;-64
2021/10/24 05:13:41;;;;;;;5.88;1.50;;;12.10;99.90;;;;;;5050773;28;20429;-63
2021/10/24 05:16:07;;;;;;;5.55;1.58;;;12.10;99.90;;;;;;5050889;28;20033;-62
2021/10/24 05:18:33;;;;;;;5.25;1.60;;;12.10;99.90;;;;;;5051264;28;20033;-62
2021/10/24 05:20:59;;;;;;;4.93;1.52;;;12.10;99.90;;;;;;5051512;28;20381;-64
2021/10/24 05:23:25;;;;;;;5.13;1.48;;;12.10;99.90;;;;;;5051095;28;20029;-60
2021/10/24 05:25:51;;;;;;;4.30;1.40;;;12.10;99.90;;;;;;5051598;28;20040;-63
2021/10/24 05:28:18;;;;;;;6.65;1.88;;;12.10;99.90;;;;;;5050325;28;20043;-62
2021/10/24 05:30:44;;;;;;;5.80;1.65;;;12.10;99.90;;;;;;5051315;28;20025;-64
2021/10/24 05:33:09;;;;;;;6.80;1.73;;;12.10;99.90;;;;;;5050867;28;20089;-62
2021/10/24 05:35:35;;;;;;;6.40;1.85;;;12.10;99.90;;;;;;5050633;28;20029;-62
2021/10/24 05:38:01;;;;;;;4.47;1.50;;;12.10;99.90;;;;;;5051049;28;20041;-64
2021/10/24 05:40:27;;;;;;;4.55;1.48;;;12.10;99.90;;;;;;5031743;28;20090;-63
2021/10/24 05:42:53;;;;;;;8.73;1.80;;;12.10;99.90;;;;;;5046522;28;20025;-60
2021/10/24 05:45:18;;;;;;;14.05;2.40;;;12.10;99.90;;;;;;5051022;28;20065;-62
2021/10/24 05:47:44;;;;;;;6.78;1.73;;;12.10;99.90;;;;;;5050346;28;20029;-63
2021/10/24 05:50:10;;;;;;;3.88;1.50;;;12.10;99.90;;;;;;5051397;28;20056;-62
2021/10/24 05:52:36;;;;;;;3.38;1.40;;;12.10;99.90;;;;;;5049725;28;20024;-63
2021/10/24 05:55:03;;;;;;;7.30;1.77;;;12.10;99.90;;;;;;5051190;28;20093;-62
2021/10/24 05:57:29;;;;;;;4.82;1.63;;;12.10;99.90;;;;;;5050290;28;20565;-63
2021/10/24 05:59:55;;;;;;;7.18;1.40;;;12.10;99.90;;;;;;5050123;28;20025;-62
2021/10/24 06:02:21;;;;;;;5.68;1.52;;;12.10;99.90;;;;;;5049075;28;20029;-63
2021/10/24 06:04:46;;;;;;;7.03;1.67;;;12.10;99.90;;;;;;5048961;28;20044;-63
2021/10/24 06:07:12;;;;;;;5.00;1.63;;;12.10;99.90;;;;;;5050968;28;20036;-60
2021/10/24 06:09:51;;;;;;;6.65;1.90;;;12.10;99.90;;;;;;5050609;28;20039;-64
2021/10/24 06:15:07;;;;;;;6.88;1.73;;;12.00;99.90;;;;;;5050105;28;20060;-61
2021/10/24 06:17:33;;;;;;;7.70;1.50;;;12.10;99.90;;;;;;5050199;28;20041;-62
2021/10/24 06:19:59;;;;;;;5.97;1.50;;;12.10;99.90;;;;;;5050800;28;20033;-63
2021/10/24 06:22:26;;;;;;;7.95;1.70;;;12.10;99.90;;;;;;5031450;28;20773;-64
2021/10/24 06:24:53;;;;;;;7.43;2.10;;;12.00;99.90;;;;;;5050550;28;20037;-61
2021/10/24 06:27:18;;;;;;;5.65;1.70;;;12.10;99.90;;;;;;5049862;28;20339;-62
2021/10/24 06:29:44;;;;;;;4.82;1.45;;;12.00;99.90;;;;;;5049917;28;20036;-61
2021/10/24 06:32:10;;;;;;;6.65;1.63;;;12.10;99.90;;;;;;5049660;28;20513;-62
2021/10/24 06:34:36;;;;;;;9.13;2.00;;;12.00;99.90;;;;;;5050173;28;20482;-62
2021/10/24 06:37:02;;;;;;;6.25;1.98;;;12.00;99.90;;;;;;5050886;28;20025;-62
2021/10/24 06:39:27;;;;;;;7.35;2.30;;;12.00;99.90;;;;;;5049851;28;20494;-63
2021/10/24 06:41:53;;;;;;;4.13;1.92;;;12.00;99.90;;;;;;5047710;28;20069;-62
2021/10/24 06:44:19;;;;;;;3.70;1.80;;;12.00;99.90;;;;;;5049491;28;20039;-63
2021/10/24 06:46:45;;;;;;;5.53;1.77;;;12.00;99.90;;;;;;5050967;28;20035;-62
2021/10/24 06:49:11;;;;;;;12.95;2.08;;;12.00;99.90;;;;;;5049688;28;20025;-62
2021/10/24 06:51:39;;;;;;;7.47;1.88;;;12.00;99.90;;;;;;5050185;28;20117;-63
2021/10/24 06:54:05;;;;;;;3.95;1.52;;;12.00;99.90;;;;;;5049513;28;20029;-63
2021/10/24 06:56:31;;;;;;;5.70;1.83;;;12.10;99.90;;;;;;5050646;28;20080;-62
2021/10/24 06:58:56;;;;;;;7.07;2.10;;;12.10;99.90;;;;;;5049389;28;20041;-62
2021/10/24 07:01:22;;;;;;;7.57;2.05;;;12.00;99.90;;;;;;5049875;28;20025;-63
2021/10/24 07:03:48;;;;;;;7.18;2.58;;;12.00;99.90;;;;;;5040662;28;20029;-64
2021/10/24 07:06:13;;;;;;;6.28;1.90;;;12.00;99.90;;;;;;5050284;28;20108;-62
2021/10/24 07:08:39;;;;;;;11.20;2.58;;;12.00;99.90;;;;;;5049331;28;20686;-61
2021/10/24 07:11:05;;;;;;;6.70;2.13;;;12.00;99.90;;;;;;5050020;28;20057;-62
2021/10/24 07:13:31;;;;;;;8.18;1.75;;;12.00;99.90;;;;;;5051916;28;20033;-62
2021/10/24 07:15:57;;;;;;;7.53;1.80;;;12.10;99.90;;;;;;5054229;28;20037;-62
2021/10/24 07:18:23;;;;;;;8.57;1.88;;;12.10;99.90;;;;;;5053831;28;20040;-63
2021/10/24 07:20:49;;;;;;;5.93;1.73;;;12.10;99.90;;;;;;5054240;28;20033;-61
2021/10/24 07:23:14;;;;;;;7.68;1.65;;;12.10;99.90;;;;;;5052896;28;20104;-61
2021/10/24 07:25:40;;;;;;;6.45;2.00;;;12.10;99.90;;;;;;5053677;28;20499;-62
2021/10/24 07:28:06;;;;;;;4.13;1.83;;;12.10;99.90;;;;;;5048416;28;20819;-63
2021/10/24 07:30:32;;;;;;;4.85;1.88;;;12.10;99.90;;;;;;5051912;28;20025;-61
2021/10/24 07:32:58;;;;;;;9.00;2.38;;;12.10;99.90;;;;;;5046333;28;20044;-62
2021/10/24 07:35:24;;;;;;;4.68;1.70;;;12.10;99.90;;;;;;5053641;28;20031;-63
2021/10/24 07:37:50;;;;;;;6.97;1.90;;;12.10;99.90;;;;;;5053520;28;20479;-61
2021/10/24 07:40:18;;;;;;;5.35;1.80;;;12.10;99.90;;;;;;5052345;28;20025;-62
2021/10/24 07:42:44;;;;;;;8.20;2.35;;;12.20;99.90;;;;;;5052117;28;20036;-64
2021/10/24 07:45:10;;;;;;;6.43;2.00;;;12.20;99.90;;;;;;5052372;28;20021;-64
2021/10/24 07:47:37;;;;;;;4.25;1.75;;;12.20;99.90;;;;;;5053428;28;20028;-62
2021/10/24 07:50:06;;;;;;;8.43;2.00;;;12.20;99.90;;;;;;5047340;28;20021;-62
2021/10/24 07:52:33;;;;;;;4.50;1.85;;;12.30;99.90;;;;;;5050732;28;20031;-64
2021/10/24 07:54:59;;;;;;;7.68;1.98;;;12.30;99.90;;;;;;5033798;28;20033;-62
2021/10/24 07:57:25;;;;;;;7.68;1.63;;;12.30;99.90;;;;;;5051814;28;20059;-63
2021/10/24 07:59:50;;;;;;;6.22;1.88;;;12.30;99.90;;;;;;5052035;28;20020;-62
2021/10/24 08:02:18;;;;;;;7.13;2.08;;;12.30;99.90;;;;;;5048189;28;20132;-62
2021/10/24 08:04:50;;;;;;;7.43;2.25;;;12.30;99.90;;;;;;5052246;28;20013;-64
2021/10/24 08:07:17;;;;;;;8.95;2.03;;;12.40;99.90;;;;;;5052298;28;20028;-64
2021/10/24 08:09:43;;;;;;;8.07;1.90;;;12.40;99.90;;;;;;5052757;28;20039;-62
2021/10/24 08:12:09;;;;;;;4.20;1.70;;;12.40;99.90;;;;;;5053069;28;20434;-62
2021/10/24 08:14:35;;;;;;;7.18;2.00;;;12.50;99.90;;;;;;5052225;28;20113;-62
2021/10/24 08:17:03;;;;;;;6.28;1.67;;;12.50;99.90;;;;;;5052739;28;20044;-62
2021/10/24 08:19:29;;;;;;;6.82;1.70;;;12.60;99.90;;;;;;5051368;28;20112;-63
2021/10/24 08:21:55;;;;;;;6.07;2.30;;;12.60;99.90;;;;;;5056389;28;20112;-61
2021/10/24 08:24:21;;;;;;;7.95;2.03;;;12.60;99.90;;;;;;5055320;28;20077;-62
2021/10/24 08:26:48;;;;;;;6.70;1.80;;;12.70;99.90;;;;;;5044951;28;20057;-63
2021/10/24 08:29:14;;;;;;;5.75;2.65;;;12.70;99.90;;;;;;5028358;28;20582;-64
2021/10/24 08:31:44;;;;;;;7.00;1.92;;;12.80;99.90;;;;;;5051857;28;20052;-64
2021/10/24 08:34:11;;;;;;;9.05;2.00;;;12.80;99.90;;;;;;5041541;28;20040;-64
2021/10/24 08:36:37;;;;;;;5.25;2.20;;;12.90;99.90;;;;;;5052307;28;20082;-64
2021/10/24 08:39:03;;;;;;;10.13;2.38;;;13.00;99.90;;;;;;5047934;28;20115;-63
2021/10/24 08:41:29;;;;;;;12.00;2.67;;;13.20;99.90;;;;;;5047513;28;20033;-62
2021/10/24 08:44:00;;;;;;;11.32;2.38;;;13.20;99.90;;;;;;5049551;28;20032;-64
2021/10/24 08:46:25;;;;;;;9.88;2.50;;;13.30;99.90;;;;;;5051853;28;20029;-63
2021/10/24 08:48:53;;;;;;;8.15;2.65;;;13.30;99.90;;;;;;5050889;28;20052;-62
2021/10/24 08:51:19;;;;;;;5.30;1.95;;;13.40;99.90;;;;;;5051386;28;20486;-63
2021/10/24 08:53:46;;;;;;;15.82;6.85;;;13.40;99.90;;;;;;5051404;28;20084;-61
2021/10/24 08:56:21;;;;;;;9.45;2.97;;;13.40;99.90;;;;;;5052528;28;20138;-62
2021/10/24 08:58:48;;;;;;;9.65;2.45;;;13.50;99.90;;;;;;5046831;28;20060;-63
2021/10/24 09:01:15;;;;;;;4.63;2.25;;;13.60;99.90;;;;;;5049230;28;20368;-64
2021/10/24 09:04:09;;;;;;;9.77;2.25;;;13.70;99.90;;;;;;5050794;28;20033;-63
2021/10/24 09:06:58;;;;;;;12.38;2.92;;;13.70;99.90;;;;;;5036030;28;20045;-62
2021/10/24 09:09:29;;;;;;;6.25;1.98;;;13.60;99.90;;;;;;5046992;28;20029;-64
2021/10/24 09:11:58;;;;;;;6.95;2.13;;;13.70;99.90;;;;;;5047627;28;20029;-61
2021/10/24 09:14:49;;;;;;;7.90;2.13;;;13.90;99.90;;;;;;5049634;28;20060;-63
2021/10/24 09:17:18;;;;;;;7.65;1.80;;;13.90;99.90;;;;;;5047476;28;20025;-63
2021/10/24 09:19:46;;;;;;;5.18;1.77;;;13.90;99.90;;;;;;5051097;28;20033;-61
2021/10/24 09:22:25;;;;;;;8.50;2.00;;;13.80;99.90;;;;;;5050100;28;20052;-63
2021/10/24 09:25:12;;;;;;;5.43;1.75;;;13.80;99.90;;;;;;5046748;28;20435;-63
2021/10/24 09:27:51;;;;;;;5.72;2.03;;;13.70;99.90;;;;;;5049765;28;20045;-62
2021/10/24 09:30:31;;;;;;;23.08;6.95;;;13.70;99.90;;;;;;5047326;28;20021;-62
2021/10/24 09:33:08;;;;;;;6.45;2.03;;;13.80;99.90;;;;;;5051743;28;20042;-61
2021/10/24 09:35:41;;;;;;;6.38;2.05;;;13.80;99.90;;;;;;5049775;28;20112;-62
2021/10/24 09:38:29;;;;;;;6.00;2.00;;;13.90;99.90;;;;;;5047609;28;20044;-62
2021/10/24 09:40:58;;;;;;;8.85;2.28;;;13.90;99.90;;;;;;5046904;28;20490;-62
2021/10/24 09:43:26;;;;;;;9.70;2.10;;;13.90;99.90;;;;;;5048712;28;20441;-62
2021/10/24 09:45:59;;;;;;;6.28;2.08;;;13.90;99.90;;;;;;5046633;28;20037;-64
2021/10/24 09:48:29;;;;;;;9.00;2.13;;;13.90;99.90;;;;;;5049941;28;20482;-62
2021/10/24 09:51:04;;;;;;;8.00;1.73;;;13.90;99.90;;;;;;5033613;28;20393;-62
2021/10/24 09:53:32;;;;;;;;;;;13.90;99.90;;;;;;5025776;28;20060;-62
2021/10/24 09:56:01;;;;;;;7.38;2.00;;;13.90;99.90;;;;;;5047121;28;19909;-64
2021/10/24 09:58:31;;;;;;;5.28;1.90;;;13.90;99.90;;;;;;5052350;28;20025;-64
2021/10/24 10:01:02;;;;;;;11.35;2.35;;;13.90;99.90;;;;;;5030851;28;20033;-63
2021/10/24 10:03:28;;;;;;;9.63;2.30;;;13.80;99.90;;;;;;5048000;28;20051;-63
2021/10/24 10:05:56;;;;;;;8.25;2.22;;;13.80;99.90;;;;;;5050098;28;20160;-62
2021/10/24 10:08:22;;;;;;;8.43;2.20;;;13.60;99.90;;;;;;5043639;28;20021;-63
2021/10/24 10:10:58;;;;;;;7.70;1.95;;;13.60;99.90;;;;;;5045295;28;20530;-62
2021/10/24 10:13:26;;;;;;;9.23;2.25;;;13.60;99.90;;;;;;5045243;28;20036;-65
2021/10/24 10:15:53;;;;;;;18.38;2.67;;;13.60;99.90;;;;;;5041837;28;20121;-65
2021/10/24 10:18:20;;;;;;;6.97;1.92;;;13.50;99.90;;;;;;5042208;28;20862;-64
2021/10/24 10:20:52;;;;;;;11.05;2.33;;;13.50;99.90;;;;;;5047156;28;20067;-62
2021/10/24 10:23:21;;;;;;;12.40;3.95;;;13.50;99.90;;;;;;5047786;28;20028;-64
2021/10/24 10:25:47;;;;;;;11.65;2.35;;;13.60;99.90;;;;;;5036869;28;20075;-63
2021/10/24 10:28:35;;;;;;;8.30;2.20;;;13.50;99.90;;;;;;5049312;28;20064;-64
2021/10/24 10:31:16;;;;;;;9.48;2.40;;;13.50;99.90;;;;;;5047710;28;20069;-63
2021/10/24 10:33:58;;;;;;;4.75;2.08;;;13.60;99.90;;;;;;5048507;28;20048;-66
2021/10/24 10:36:44;;;;;;;4.97;1.98;;;13.70;99.90;;;;;;5048978;28;20516;-64
2021/10/24 10:39:31;;;;;;;8.93;2.22;;;13.90;99.90;;;;;;5043650;28;20378;-65
2021/10/24 10:42:06;;;;;;;8.20;2.13;;;14.20;99.90;;;;;;5045821;28;20032;-63
2021/10/24 10:44:36;;;;;;;;;;;14.20;99.90;;;;;;5043614;28;20486;-64
2021/10/24 10:47:40;;;;;;;14.27;2.40;;;14.20;99.90;;;;;;5045826;28;19982;-64
2021/10/24 10:50:28;;;;;;;7.22;2.13;;;14.40;99.90;;;;;;5048788;28;20033;-64
2021/10/24 10:53:03;;;;;;;4.85;1.65;;;14.50;99.90;;;;;;5047442;28;20037;-62
2021/10/24 10:55:57;;;;;;;13.98;2.10;;;14.70;99.90;;;;;;5023490;28;20472;-62
2021/10/24 10:58:38;;;;;;;9.35;2.20;;;14.80;99.90;;;;;;5041519;28;20039;-64
2021/10/24 11:01:26;;;;;;;10.38;2.00;;;14.90;99.90;;;;;;5047728;28;20033;-64
2021/10/24 11:04:17;;;;;;;7.55;1.77;;;15.10;99.90;;;;;;5040342;28;20039;-63
2021/10/24 11:06:59;;;;;;;7.00;1.77;;;15.20;99.90;;;;;;5046368;28;20025;-64
2021/10/24 11:09:43;;;;;;;6.93;2.17;;;15.40;99.90;;;;;;5045990;28;20571;-65
2021/10/24 11:12:30;;;;;;;8.35;2.15;;;15.30;99.90;;;;;;5047433;28;20028;-65
2021/10/24 11:15:27;;;;;;;11.85;2.80;;;15.30;99.90;;;;;;5044171;28;20491;-64
2021/10/24 11:18:24;;;;;;;7.63;2.28;;;15.20;99.90;;;;;;5050279;28;20487;-63
2021/10/24 11:20:50;;;;;;;9.40;2.55;;;15.20;99.90;;;;;;5037492;28;20029;-64
2021/10/24 11:23:18;;;;;;;7.72;1.80;;;15.20;99.90;;;;;;5030121;28;20116;-64
2021/10/24 11:25:44;;;;;;;9.93;2.50;;;15.20;99.90;;;;;;5039242;28;20029;-64
2021/10/24 11:28:28;;;;;;;9.82;2.17;;;15.30;99.90;;;;;;5038065;28;20064;-64
2021/10/24 11:31:07;;;;;;;5.57;2.15;;;15.40;99.90;;;;;;5047637;28;20053;-64
2021/10/24 11:33:53;;;;;;;5.40;1.95;;;15.40;99.90;;;;;;5046765;28;20112;-64
2021/10/24 11:36:29;;;;;;;11.43;2.40;;;15.40;99.90;;;;;;5047910;28;20040;-64
2021/10/24 11:39:00;;;;;;;11.32;2.42;;;15.50;99.90;;;;;;5047491;28;20033;-65
2021/10/24 11:41:31;;;;;;;5.90;2.00;;;15.50;99.90;;;;;;5045144;28;20036;-65
2021/10/24 11:44:11;;;;;;;7.97;2.10;;;15.40;99.90;;;;;;5041793;28;20107;-65
2021/10/24 11:46:37;;;;;;;3.50;1.65;;;15.30;99.90;;;;;;5043464;28;20025;-63
2021/10/24 11:49:04;;;;;;;8.27;2.65;;;15.40;99.90;;;;;;5045864;28;20029;-63
2021/10/24 11:51:33;;;;;;;3.63;1.77;;;15.40;99.90;;;;;;5046239;28;20033;-65
2021/10/24 11:54:00;;;;;;;5.25;1.88;;;15.40;99.90;;;;;;5049210;28;20029;-64
2021/10/24 11:59:13;;;;;;;7.03;2.30;;;15.40;99.90;;;;;;5041524;28;20471;-62
2021/10/24 12:01:39;;;;;;;9.30;2.08;;;15.40;99.90;;;;;;5026741;28;20489;-64
2021/10/24 12:04:10;;;;;;;5.85;1.75;;;15.40;99.90;;;;;;5047031;28;20040;-64
2021/10/24 12:06:52;;;;;;;4.90;2.00;;;15.50;99.90;;;;;;5043645;28;20033;-64
2021/10/24 12:09:29;;;;;;;10.98;2.55;;;15.60;99.90;;;;;;5047194;28;20033;-64
2021/10/24 12:12:08;;;;;;;5.70;1.80;;;15.60;99.90;;;;;;5044982;28;20036;-63
2021/10/24 12:14:52;;;;;;;11.68;2.40;;;15.50;99.90;;;;;;5042456;28;20033;-62
2021/10/24 12:17:22;;;;;;;5.32;1.60;;;15.50;99.90;;;;;;5047640;28;20029;-64
2021/10/24 12:20:04;;;;;;;10.10;2.00;;;15.40;99.90;;;;;;5051166;28;20390;-64
2021/10/24 12:22:40;;;;;;;7.53;2.33;;;15.40;99.90;;;;;;5047496;28;20470;-63
2021/10/24 12:25:10;;;;;;;6.82;2.13;;;15.40;99.90;;;;;;5037642;28;20063;-64
2021/10/24 12:27:37;;;;;;;6.70;1.88;;;15.50;99.90;;;;;;5050662;28;20086;-63
2021/10/24 12:30:08;;;;;;;6.05;2.08;;;15.70;99.90;;;;;;5051716;28;20482;-62
2021/10/24 12:32:55;;;;;;;5.63;1.80;;;15.80;99.90;;;;;;5043873;28;20037;-64
2021/10/24 12:35:21;;;;;;;8.25;2.00;;;15.80;99.90;;;;;;5049395;28;20507;-64
2021/10/24 12:38:00;;;;;;;7.90;1.92;;;15.80;99.90;;;;;;5045399;28;20040;-63
2021/10/24 12:40:32;;;;;;;8.85;2.05;;;15.90;99.90;;;;;;5048462;28;20124;-63
2021/10/24 12:43:07;;;;;;;6.55;1.80;;;16.00;99.90;;;;;;5050917;28;20025;-63
2021/10/24 12:45:55;;;;;;;5.85;2.10;;;16.00;99.90;;;;;;5048095;28;20082;-64
2021/10/24 12:48:23;;;;;;;5.93;1.73;;;16.00;99.90;;;;;;5033618;28;20029;-64
2021/10/24 12:51:09;;;;;;;9.00;1.77;;;16.00;99.90;;;;;;5050200;28;20041;-64
2021/10/24 12:53:48;;;;;;;9.10;2.20;;;15.90;99.90;;;;;;5046483;28;20489;-64
2021/10/24 12:56:17;;;;;;;5.20;1.80;;;15.80;99.90;;;;;;5050314;28;20077;-64
2021/10/24 12:58:52;;;;;;;9.57;3.30;;;15.80;99.90;;;;;;5027925;28;20032;-63
2021/10/24 13:01:27;;;;;;;10.65;2.90;;;15.90;99.90;;;;;;5048624;28;20974;-63